sensor_id;sensor_type;location;lat;lon;timestamp;pressure;altitude;pressure_sealevel;temperature;humidity
61436;BME280;47304;47.456;19.160;2023-08-07T00:02:02;99391.00;;;15.72;66.35
61436;BME280;47304;47.456;19.160;2023-08-07T00:04:29;99386.50;;;15.70;66.44
61436;BME280;47304;47.456;19.160;2023-08-07T00:06:56;99383.42;;;15.67;66.36
61436;BME280;47304;47.456;19.160;2023-08-07T00:09:22;99382.24;;;15.65;66.55
61436;BME280;47304;47.456;19.160;2023-08-07T00:11:49;99385.52;;;15.63;66.72
61436;BME280;47304;47.456;19.160;2023-08-07T00:14:16;99393.35;;;15.61;66.82
61436;BME280;47304;47.456;19.160;2023-08-07T00:16:43;99399.05;;;15.59;66.94
61436;BME280;47304;47.456;19.160;2023-08-07T00:19:11;99393.83;;;15.58;67.08
61436;BME280;47304;47.456;19.160;2023-08-07T00:21:38;99395.48;;;15.56;67.08
61436;BME280;47304;47.456;19.160;2023-08-07T00:24:05;99390.98;;;15.54;67.15
61436;BME280;47304;47.456;19.160;2023-08-07T00:26:31;99391.73;;;15.52;67.45
61436;BME280;47304;47.456;19.160;2023-08-07T00:28:58;99397.42;;;15.51;67.54
61436;BME280;47304;47.456;19.160;2023-08-07T00:31:25;99399.76;;;15.50;67.56
61436;BME280;47304;47.456;19.160;2023-08-07T00:33:52;99399.21;;;15.50;67.81
61436;BME280;47304;47.456;19.160;2023-08-07T00:36:19;99399.91;;;15.50;67.85
61436;BME280;47304;47.456;19.160;2023-08-07T00:38:46;99399.73;;;15.51;67.94
61436;BME280;47304;47.456;19.160;2023-08-07T00:41:13;99399.02;;;15.51;67.92
61436;BME280;47304;47.456;19.160;2023-08-07T00:43:40;99397.92;;;15.52;67.74
61436;BME280;47304;47.456;19.160;2023-08-07T00:46:07;99397.91;;;15.52;67.75
61436;BME280;47304;47.456;19.160;2023-08-07T00:48:34;99398.59;;;15.53;67.68
61436;BME280;47304;47.456;19.160;2023-08-07T00:51:02;99401.90;;;15.54;67.72
61436;BME280;47304;47.456;19.160;2023-08-07T00:53:29;99402.10;;;15.54;67.74
61436;BME280;47304;47.456;19.160;2023-08-07T00:55:56;99397.44;;;15.55;67.66
61436;BME280;47304;47.456;19.160;2023-08-07T00:58:23;99394.42;;;15.56;67.66
61436;BME280;47304;47.456;19.160;2023-08-07T01:00:51;99397.77;;;15.56;67.63
61436;BME280;47304;47.456;19.160;2023-08-07T01:03:17;99398.86;;;15.55;67.73
61436;BME280;47304;47.456;19.160;2023-08-07T01:05:44;99400.35;;;15.53;67.65
61436;BME280;47304;47.456;19.160;2023-08-07T01:08:11;99398.27;;;15.52;67.54
61436;BME280;47304;47.456;19.160;2023-08-07T01:13:28;99403.58;;;15.51;67.67
61436;BME280;47304;47.456;19.160;2023-08-07T01:16:02;99403.74;;;15.52;67.48
61436;BME280;47304;47.456;19.160;2023-08-07T01:18:31;99404.30;;;15.51;67.31
61436;BME280;47304;47.456;19.160;2023-08-07T01:20:58;99406.60;;;15.51;67.49
61436;BME280;47304;47.456;19.160;2023-08-07T01:23:25;99408.58;;;15.50;67.60
61436;BME280;47304;47.456;19.160;2023-08-07T01:25:52;99412.35;;;15.48;67.49
61436;BME280;47304;47.456;19.160;2023-08-07T01:28:36;99414.64;;;15.49;67.62
61436;BME280;47304;47.456;19.160;2023-08-07T01:31:10;99418.89;;;15.48;67.66
61436;BME280;47304;47.456;19.160;2023-08-07T01:33:48;99424.34;;;15.49;67.73
61436;BME280;47304;47.456;19.160;2023-08-07T01:36:18;99427.31;;;15.49;67.67
61436;BME280;47304;47.456;19.160;2023-08-07T01:38:47;99432.76;;;15.50;67.48
61436;BME280;47304;47.456;19.160;2023-08-07T01:41:16;99428.16;;;15.50;67.16
61436;BME280;47304;47.456;19.160;2023-08-07T01:43:43;99432.36;;;15.51;67.12
61436;BME280;47304;47.456;19.160;2023-08-07T01:46:10;99433.89;;;15.53;67.11
61436;BME280;47304;47.456;19.160;2023-08-07T01:48:37;99434.91;;;15.54;67.12
61436;BME280;47304;47.456;19.160;2023-08-07T01:51:04;99430.98;;;15.55;66.99
61436;BME280;47304;47.456;19.160;2023-08-07T01:53:31;99424.91;;;15.57;66.54
61436;BME280;47304;47.456;19.160;2023-08-07T01:55:58;99426.80;;;15.58;66.40
61436;BME280;47304;47.456;19.160;2023-08-07T01:58:25;99427.98;;;15.60;66.37
61436;BME280;47304;47.456;19.160;2023-08-07T02:00:52;99430.77;;;15.61;66.32
61436;BME280;47304;47.456;19.160;2023-08-07T02:03:20;99433.38;;;15.62;66.17
61436;BME280;47304;47.456;19.160;2023-08-07T02:05:47;99431.64;;;15.62;65.91
61436;BME280;47304;47.456;19.160;2023-08-07T02:08:15;99432.15;;;15.62;65.85
61436;BME280;47304;47.456;19.160;2023-08-07T02:10:44;99433.39;;;15.62;65.79
61436;BME280;47304;47.456;19.160;2023-08-07T02:13:13;99436.71;;;15.63;65.84
61436;BME280;47304;47.456;19.160;2023-08-07T02:15:42;99436.70;;;15.63;65.73
61436;BME280;47304;47.456;19.160;2023-08-07T02:18:09;99436.70;;;15.63;65.51
61436;BME280;47304;47.456;19.160;2023-08-07T02:20:36;99437.08;;;15.63;65.45
61436;BME280;47304;47.456;19.160;2023-08-07T02:23:04;99436.31;;;15.64;65.72
61436;BME280;47304;47.456;19.160;2023-08-07T02:25:31;99444.77;;;15.65;65.62
61436;BME280;47304;47.456;19.160;2023-08-07T02:27:59;99445.64;;;15.65;65.43
61436;BME280;47304;47.456;19.160;2023-08-07T02:30:27;99447.09;;;15.64;65.32
61436;BME280;47304;47.456;19.160;2023-08-07T02:32:54;99442.52;;;15.64;65.48
61436;BME280;47304;47.456;19.160;2023-08-07T02:35:21;99440.45;;;15.62;65.08
61436;BME280;47304;47.456;19.160;2023-08-07T02:37:48;99439.81;;;15.60;64.86
61436;BME280;47304;47.456;19.160;2023-08-07T02:40:15;99440.95;;;15.58;65.11
61436;BME280;47304;47.456;19.160;2023-08-07T02:42:42;99440.67;;;15.56;65.06
61436;BME280;47304;47.456;19.160;2023-08-07T02:45:09;99441.08;;;15.54;65.14
61436;BME280;47304;47.456;19.160;2023-08-07T02:47:36;99442.76;;;15.52;65.19
61436;BME280;47304;47.456;19.160;2023-08-07T02:50:03;99445.11;;;15.50;64.84
61436;BME280;47304;47.456;19.160;2023-08-07T02:52:30;99446.98;;;15.47;64.79
61436;BME280;47304;47.456;19.160;2023-08-07T02:54:57;99454.09;;;15.45;65.00
61436;BME280;47304;47.456;19.160;2023-08-07T02:57:24;99453.83;;;15.42;64.80
61436;BME280;47304;47.456;19.160;2023-08-07T02:59:51;99453.91;;;15.40;64.96
61436;BME280;47304;47.456;19.160;2023-08-07T03:02:18;99457.65;;;15.39;65.02
61436;BME280;47304;47.456;19.160;2023-08-07T03:04:45;99452.77;;;15.37;65.10
61436;BME280;47304;47.456;19.160;2023-08-07T03:07:12;99454.55;;;15.37;65.07
61436;BME280;47304;47.456;19.160;2023-08-07T03:09:39;99462.52;;;15.36;64.98
61436;BME280;47304;47.456;19.160;2023-08-07T03:12:06;99461.70;;;15.34;64.89
61436;BME280;47304;47.456;19.160;2023-08-07T03:14:33;99467.05;;;15.34;64.96
61436;BME280;47304;47.456;19.160;2023-08-07T03:17:00;99461.67;;;15.31;64.79
61436;BME280;47304;47.456;19.160;2023-08-07T03:19:27;99463.27;;;15.29;65.03
61436;BME280;47304;47.456;19.160;2023-08-07T03:21:54;99464.02;;;15.28;64.90
61436;BME280;47304;47.456;19.160;2023-08-07T03:24:21;99465.67;;;15.27;64.95
61436;BME280;47304;47.456;19.160;2023-08-07T03:26:48;99466.56;;;15.26;65.42
61436;BME280;47304;47.456;19.160;2023-08-07T03:29:14;99471.00;;;15.26;65.34
61436;BME280;47304;47.456;19.160;2023-08-07T03:31:42;99470.36;;;15.23;65.68
61436;BME280;47304;47.456;19.160;2023-08-07T03:34:09;99472.04;;;15.21;65.07
61436;BME280;47304;47.456;19.160;2023-08-07T03:36:36;99469.63;;;15.20;65.07
61436;BME280;47304;47.456;19.160;2023-08-07T03:39:03;99468.27;;;15.18;64.79
61436;BME280;47304;47.456;19.160;2023-08-07T03:41:30;99471.06;;;15.18;65.12
61436;BME280;47304;47.456;19.160;2023-08-07T03:43:57;99472.83;;;15.19;64.97
61436;BME280;47304;47.456;19.160;2023-08-07T03:46:24;99475.13;;;15.18;64.88
61436;BME280;47304;47.456;19.160;2023-08-07T03:48:51;99475.16;;;15.18;64.83
61436;BME280;47304;47.456;19.160;2023-08-07T03:51:18;99484.34;;;15.17;64.88
61436;BME280;47304;47.456;19.160;2023-08-07T03:53:45;99481.02;;;15.16;65.26
61436;BME280;47304;47.456;19.160;2023-08-07T03:56:12;99489.67;;;15.16;65.02
61436;BME280;47304;47.456;19.160;2023-08-07T03:58:39;99491.65;;;15.15;64.97
61436;BME280;47304;47.456;19.160;2023-08-07T04:01:05;99493.59;;;15.15;65.03
61436;BME280;47304;47.456;19.160;2023-08-07T04:03:32;99495.90;;;15.15;65.05
61436;BME280;47304;47.456;19.160;2023-08-07T04:05:59;99496.08;;;15.15;64.62
61436;BME280;47304;47.456;19.160;2023-08-07T04:08:26;99495.20;;;15.15;64.76
61436;BME280;47304;47.456;19.160;2023-08-07T04:13:27;99500.74;;;15.17;65.60
61436;BME280;47304;47.456;19.160;2023-08-07T04:15:54;99504.24;;;15.18;65.67
61436;BME280;47304;47.456;19.160;2023-08-07T04:18:21;99506.39;;;15.17;65.22
61436;BME280;47304;47.456;19.160;2023-08-07T04:20:50;99506.08;;;15.16;65.73
61436;BME280;47304;47.456;19.160;2023-08-07T04:23:17;99512.98;;;15.15;65.15
61436;BME280;47304;47.456;19.160;2023-08-07T04:25:46;99512.50;;;15.13;65.30
61436;BME280;47304;47.456;19.160;2023-08-07T04:28:14;99514.27;;;15.13;65.33
61436;BME280;47304;47.456;19.160;2023-08-07T04:30:41;99513.23;;;15.12;64.87
61436;BME280;47304;47.456;19.160;2023-08-07T04:33:08;99512.95;;;15.10;64.75
61436;BME280;47304;47.456;19.160;2023-08-07T04:35:35;99514.08;;;15.08;64.56
61436;BME280;47304;47.456;19.160;2023-08-07T04:38:02;99518.04;;;15.06;64.56
61436;BME280;47304;47.456;19.160;2023-08-07T04:40:29;99523.17;;;15.06;64.92
61436;BME280;47304;47.456;19.160;2023-08-07T04:42:56;99515.96;;;15.05;64.45
61436;BME280;47304;47.456;19.160;2023-08-07T04:45:24;99521.54;;;15.06;64.97
61436;BME280;47304;47.456;19.160;2023-08-07T04:47:51;99515.11;;;15.09;64.80
61436;BME280;47304;47.456;19.160;2023-08-07T04:50:18;99516.19;;;15.14;64.58
61436;BME280;47304;47.456;19.160;2023-08-07T04:52:44;99518.70;;;15.19;64.81
61436;BME280;47304;47.456;19.160;2023-08-07T04:55:12;99521.54;;;15.23;64.54
61436;BME280;47304;47.456;19.160;2023-08-07T04:57:39;99522.79;;;15.28;64.32
61436;BME280;47304;47.456;19.160;2023-08-07T05:00:06;99520.67;;;15.34;64.05
61436;BME280;47304;47.456;19.160;2023-08-07T05:02:33;99519.61;;;15.38;63.78
61436;BME280;47304;47.456;19.160;2023-08-07T05:05:01;99521.61;;;15.42;63.82
61436;BME280;47304;47.456;19.160;2023-08-07T05:07:28;99520.65;;;15.45;63.56
61436;BME280;47304;47.456;19.160;2023-08-07T05:09:55;99520.17;;;15.49;63.59
61436;BME280;47304;47.456;19.160;2023-08-07T05:12:22;99524.04;;;15.54;63.39
61436;BME280;47304;47.456;19.160;2023-08-07T05:14:49;99525.80;;;15.59;63.23
61436;BME280;47304;47.456;19.160;2023-08-07T05:17:16;99519.41;;;15.65;62.86
61436;BME280;47304;47.456;19.160;2023-08-07T05:19:43;99519.59;;;15.70;63.12
61436;BME280;47304;47.456;19.160;2023-08-07T05:22:10;99521.87;;;15.76;62.59
61436;BME280;47304;47.456;19.160;2023-08-07T05:24:37;99528.38;;;15.82;62.37
61436;BME280;47304;47.456;19.160;2023-08-07T05:27:05;99531.04;;;15.87;62.11
61436;BME280;47304;47.456;19.160;2023-08-07T05:29:32;99532.33;;;15.91;62.08
61436;BME280;47304;47.456;19.160;2023-08-07T05:31:59;99536.71;;;15.92;61.82
61436;BME280;47304;47.456;19.160;2023-08-07T05:34:26;99537.91;;;15.93;61.74
61436;BME280;47304;47.456;19.160;2023-08-07T05:36:53;99540.54;;;15.93;61.68
61436;BME280;47304;47.456;19.160;2023-08-07T05:39:20;99538.92;;;15.94;61.68
61436;BME280;47304;47.456;19.160;2023-08-07T05:41:47;99544.40;;;15.94;60.95
61436;BME280;47304;47.456;19.160;2023-08-07T05:44:14;99548.42;;;15.95;60.98
61436;BME280;47304;47.456;19.160;2023-08-07T05:46:41;99549.92;;;15.98;60.97
61436;BME280;47304;47.456;19.160;2023-08-07T05:49:08;99550.64;;;16.02;61.22
61436;BME280;47304;47.456;19.160;2023-08-07T05:51:34;99551.83;;;16.09;61.15
61436;BME280;47304;47.456;19.160;2023-08-07T05:54:01;99551.16;;;16.17;60.89
61436;BME280;47304;47.456;19.160;2023-08-07T05:56:28;99553.10;;;16.27;60.26
61436;BME280;47304;47.456;19.160;2023-08-07T05:58:55;99545.83;;;16.37;60.32
61436;BME280;47304;47.456;19.160;2023-08-07T06:01:22;99550.13;;;16.46;59.73
61436;BME280;47304;47.456;19.160;2023-08-07T06:03:49;99560.62;;;16.53;59.62
61436;BME280;47304;47.456;19.160;2023-08-07T06:06:16;99561.80;;;16.60;59.25
61436;BME280;47304;47.456;19.160;2023-08-07T06:08:42;99563.23;;;16.63;58.93
61436;BME280;47304;47.456;19.160;2023-08-07T06:11:09;99567.89;;;16.66;58.57
61436;BME280;47304;47.456;19.160;2023-08-07T06:13:36;99568.56;;;16.67;57.69
61436;BME280;47304;47.456;19.160;2023-08-07T06:16:03;99572.48;;;16.67;58.03
61436;BME280;47304;47.456;19.160;2023-08-07T06:18:30;99577.25;;;16.67;57.85
61436;BME280;47304;47.456;19.160;2023-08-07T06:20:57;99577.63;;;16.66;57.72
61436;BME280;47304;47.456;19.160;2023-08-07T06:23:24;99580.45;;;16.66;57.81
61436;BME280;47304;47.456;19.160;2023-08-07T06:25:51;99582.73;;;16.67;58.04
61436;BME280;47304;47.456;19.160;2023-08-07T06:28:23;99586.02;;;16.68;57.29
61436;BME280;47304;47.456;19.160;2023-08-07T06:30:50;99581.94;;;16.69;57.32
61436;BME280;47304;47.456;19.160;2023-08-07T06:33:17;99586.88;;;16.70;57.56
61436;BME280;47304;47.456;19.160;2023-08-07T06:35:43;99590.69;;;16.72;57.47
61436;BME280;47304;47.456;19.160;2023-08-07T06:38:11;99596.44;;;16.74;57.61
61436;BME280;47304;47.456;19.160;2023-08-07T06:40:38;99597.40;;;16.77;57.65
61436;BME280;47304;47.456;19.160;2023-08-07T06:43:04;99601.86;;;16.80;57.04
61436;BME280;47304;47.456;19.160;2023-08-07T06:45:31;99606.77;;;16.81;57.26
61436;BME280;47304;47.456;19.160;2023-08-07T06:47:58;99611.33;;;16.82;57.11
61436;BME280;47304;47.456;19.160;2023-08-07T06:50:25;99611.22;;;16.85;56.95
61436;BME280;47304;47.456;19.160;2023-08-07T06:52:52;99604.33;;;16.86;56.59
61436;BME280;47304;47.456;19.160;2023-08-07T06:55:20;99610.09;;;16.87;56.49
61436;BME280;47304;47.456;19.160;2023-08-07T06:57:47;99609.33;;;16.89;56.58
61436;BME280;47304;47.456;19.160;2023-08-07T07:00:14;99610.48;;;16.90;56.68
61436;BME280;47304;47.456;19.160;2023-08-07T07:02:42;99611.77;;;16.90;56.03
61436;BME280;47304;47.456;19.160;2023-08-07T07:05:09;99608.80;;;16.88;55.78
61436;BME280;47304;47.456;19.160;2023-08-07T07:07:36;99611.55;;;16.86;56.21
61436;BME280;47304;47.456;19.160;2023-08-07T07:10:03;99611.30;;;16.87;56.33
61436;BME280;47304;47.456;19.160;2023-08-07T07:12:30;99603.08;;;16.90;56.52
61436;BME280;47304;47.456;19.160;2023-08-07T07:14:57;99615.51;;;16.94;56.48
61436;BME280;47304;47.456;19.160;2023-08-07T07:17:24;99611.42;;;16.99;56.26
61436;BME280;47304;47.456;19.160;2023-08-07T07:19:50;99606.49;;;17.03;55.99
61436;BME280;47304;47.456;19.160;2023-08-07T07:22:17;99610.35;;;17.08;56.03
61436;BME280;47304;47.456;19.160;2023-08-07T07:24:44;99616.72;;;17.13;55.83
61436;BME280;47304;47.456;19.160;2023-08-07T07:27:11;99620.20;;;17.19;55.87
61436;BME280;47304;47.456;19.160;2023-08-07T07:29:38;99627.71;;;17.21;55.03
61436;BME280;47304;47.456;19.160;2023-08-07T07:32:05;99628.94;;;17.22;55.20
61436;BME280;47304;47.456;19.160;2023-08-07T07:34:32;99633.77;;;17.25;55.47
61436;BME280;47304;47.456;19.160;2023-08-07T07:36:59;99637.01;;;17.33;55.68
61436;BME280;47304;47.456;19.160;2023-08-07T07:39:26;99638.16;;;17.39;54.94
61436;BME280;47304;47.456;19.160;2023-08-07T07:41:52;99635.46;;;17.44;54.78
61436;BME280;47304;47.456;19.160;2023-08-07T07:44:20;99640.90;;;17.50;54.78
61436;BME280;47304;47.456;19.160;2023-08-07T07:46:47;99646.61;;;17.58;55.00
61436;BME280;47304;47.456;19.160;2023-08-07T07:49:14;99644.75;;;17.64;54.78
61436;BME280;47304;47.456;19.160;2023-08-07T07:51:40;99640.70;;;17.73;54.64
61436;BME280;47304;47.456;19.160;2023-08-07T07:54:07;99644.16;;;17.83;54.12
61436;BME280;47304;47.456;19.160;2023-08-07T07:56:44;99648.98;;;17.91;53.98
61436;BME280;47304;47.456;19.160;2023-08-07T07:59:12;99650.14;;;17.98;53.84
61436;BME280;47304;47.456;19.160;2023-08-07T08:01:39;99654.33;;;18.07;53.79
61436;BME280;47304;47.456;19.160;2023-08-07T08:04:06;99653.98;;;18.20;53.44
61436;BME280;47304;47.456;19.160;2023-08-07T08:06:33;99655.89;;;18.33;52.69
61436;BME280;47304;47.456;19.160;2023-08-07T08:09:00;99656.45;;;18.49;53.35
61436;BME280;47304;47.456;19.160;2023-08-07T08:11:27;99659.06;;;18.70;52.69
61436;BME280;47304;47.456;19.160;2023-08-07T08:13:53;99660.98;;;18.86;52.02
61436;BME280;47304;47.456;19.160;2023-08-07T08:16:20;99664.24;;;18.92;51.64
61436;BME280;47304;47.456;19.160;2023-08-07T08:18:48;99671.78;;;18.98;51.80
61436;BME280;47304;47.456;19.160;2023-08-07T08:21:15;99672.96;;;19.00;51.36
61436;BME280;47304;47.456;19.160;2023-08-07T08:23:41;99672.91;;;19.01;51.41
61436;BME280;47304;47.456;19.160;2023-08-07T08:26:08;99676.94;;;19.03;51.47
61436;BME280;47304;47.456;19.160;2023-08-07T08:28:35;99682.39;;;19.03;51.16
61436;BME280;47304;47.456;19.160;2023-08-07T08:31:02;99680.35;;;19.06;51.63
61436;BME280;47304;47.456;19.160;2023-08-07T08:33:29;99681.98;;;19.09;51.20
61436;BME280;47304;47.456;19.160;2023-08-07T08:35:56;99686.85;;;19.07;50.86
61436;BME280;47304;47.456;19.160;2023-08-07T08:38:23;99687.38;;;19.03;50.38
61436;BME280;47304;47.456;19.160;2023-08-07T08:40:51;99691.27;;;18.99;50.57
61436;BME280;47304;47.456;19.160;2023-08-07T08:43:19;99696.71;;;18.97;50.59
61436;BME280;47304;47.456;19.160;2023-08-07T08:45:47;99692.10;;;18.97;50.31
61436;BME280;47304;47.456;19.160;2023-08-07T08:48:19;99698.50;;;18.97;49.89
61436;BME280;47304;47.456;19.160;2023-08-07T08:50:48;99701.75;;;18.95;50.04
61436;BME280;47304;47.456;19.160;2023-08-07T08:53:16;99703.71;;;18.95;49.88
61436;BME280;47304;47.456;19.160;2023-08-07T08:55:45;99706.15;;;18.96;49.83
61436;BME280;47304;47.456;19.160;2023-08-07T08:58:14;99701.70;;;18.97;49.45
61436;BME280;47304;47.456;19.160;2023-08-07T09:00:42;99704.42;;;18.99;49.91
61436;BME280;47304;47.456;19.160;2023-08-07T09:03:10;99712.50;;;19.01;49.41
61436;BME280;47304;47.456;19.160;2023-08-07T09:05:37;99714.48;;;19.00;49.29
61436;BME280;47304;47.456;19.160;2023-08-07T09:08:05;99712.65;;;18.97;49.22
61436;BME280;47304;47.456;19.160;2023-08-07T09:10:33;99711.04;;;18.89;49.11
61436;BME280;47304;47.456;19.160;2023-08-07T09:13:03;99727.44;;;18.84;49.40
61436;BME280;47304;47.456;19.160;2023-08-07T09:16:02;99729.99;;;18.82;49.52
61436;BME280;47304;47.456;19.160;2023-08-07T09:18:29;99737.55;;;18.80;48.74
61436;BME280;47304;47.456;19.160;2023-08-07T09:20:56;99733.38;;;18.78;48.68
61436;BME280;47304;47.456;19.160;2023-08-07T09:23:24;99727.79;;;18.84;49.20
61436;BME280;47304;47.456;19.160;2023-08-07T09:26:02;99726.46;;;18.94;49.35
61436;BME280;47304;47.456;19.160;2023-08-07T09:28:30;99721.80;;;19.04;48.85
61436;BME280;47304;47.456;19.160;2023-08-07T09:30:58;99724.48;;;19.10;49.24
61436;BME280;47304;47.456;19.160;2023-08-07T09:33:26;99723.39;;;19.19;48.98
61436;BME280;47304;47.456;19.160;2023-08-07T09:35:57;99718.00;;;19.24;48.56
61436;BME280;47304;47.456;19.160;2023-08-07T09:38:31;99716.42;;;19.27;48.31
61436;BME280;47304;47.456;19.160;2023-08-07T09:40:59;99713.59;;;19.27;48.97
61436;BME280;47304;47.456;19.160;2023-08-07T09:43:26;99720.80;;;19.29;48.99
61436;BME280;47304;47.456;19.160;2023-08-07T09:46:04;99724.84;;;19.26;48.98
61436;BME280;47304;47.456;19.160;2023-08-07T09:48:31;99737.84;;;19.17;48.03
61436;BME280;47304;47.456;19.160;2023-08-07T09:51:00;99730.21;;;19.13;47.85
61436;BME280;47304;47.456;19.160;2023-08-07T09:53:30;99730.11;;;19.16;48.18
61436;BME280;47304;47.456;19.160;2023-08-07T09:55:58;99729.67;;;19.21;48.41
61436;BME280;47304;47.456;19.160;2023-08-07T09:58:25;99733.16;;;19.30;48.33
61436;BME280;47304;47.456;19.160;2023-08-07T10:00:52;99743.08;;;19.39;48.28
61436;BME280;47304;47.456;19.160;2023-08-07T10:03:19;99743.44;;;19.46;48.36
61436;BME280;47304;47.456;19.160;2023-08-07T10:05:48;99745.52;;;19.55;48.09
61436;BME280;47304;47.456;19.160;2023-08-07T10:08:15;99750.94;;;19.60;48.10
61436;BME280;47304;47.456;19.160;2023-08-07T10:10:43;99754.70;;;19.63;48.21
61436;BME280;47304;47.456;19.160;2023-08-07T10:13:12;99756.05;;;19.72;48.74
61436;BME280;47304;47.456;19.160;2023-08-07T10:15:42;99749.20;;;19.90;48.82
61436;BME280;47304;47.456;19.160;2023-08-07T10:18:09;99750.84;;;20.08;48.14
61436;BME280;47304;47.456;19.160;2023-08-07T10:20:37;99749.42;;;20.18;46.99
61436;BME280;47304;47.456;19.160;2023-08-07T10:23:07;99756.00;;;20.21;46.47
61436;BME280;47304;47.456;19.160;2023-08-07T10:25:35;99755.77;;;20.16;45.78
61436;BME280;47304;47.456;19.160;2023-08-07T10:28:06;99754.75;;;20.11;46.09
61436;BME280;47304;47.456;19.160;2023-08-07T10:30:35;99753.39;;;20.13;46.37
61436;BME280;47304;47.456;19.160;2023-08-07T10:33:03;99751.58;;;20.17;46.05
61436;BME280;47304;47.456;19.160;2023-08-07T10:35:31;99758.55;;;20.20;46.12
61436;BME280;47304;47.456;19.160;2023-08-07T10:38:09;99758.44;;;20.26;45.79
61436;BME280;47304;47.456;19.160;2023-08-07T10:41:07;99754.59;;;20.29;45.26
61436;BME280;47304;47.456;19.160;2023-08-07T10:43:39;99766.17;;;20.39;44.85
61436;BME280;47304;47.456;19.160;2023-08-07T10:46:09;99758.13;;;20.50;44.67
61436;BME280;47304;47.456;19.160;2023-08-07T10:48:43;99761.94;;;20.73;44.91
61436;BME280;47304;47.456;19.160;2023-08-07T10:51:14;99762.80;;;20.94;44.78
61436;BME280;47304;47.456;19.160;2023-08-07T10:53:43;99767.66;;;21.00;44.51
61436;BME280;47304;47.456;19.160;2023-08-07T10:56:17;99765.79;;;20.77;44.35
61436;BME280;47304;47.456;19.160;2023-08-07T10:58:49;99763.23;;;20.54;44.69
61436;BME280;47304;47.456;19.160;2023-08-07T11:01:19;99773.77;;;20.32;45.26
61436;BME280;47304;47.456;19.160;2023-08-07T11:06:28;99776.93;;;19.97;46.23
61436;BME280;47304;47.456;19.160;2023-08-07T11:08:56;99785.70;;;19.92;46.75
61436;BME280;47304;47.456;19.160;2023-08-07T11:11:23;99794.80;;;19.95;46.95
61436;BME280;47304;47.456;19.160;2023-08-07T11:13:50;99796.93;;;19.95;46.74
61436;BME280;47304;47.456;19.160;2023-08-07T11:16:17;99801.92;;;19.91;47.51
61436;BME280;47304;47.456;19.160;2023-08-07T11:18:44;99804.64;;;20.19;47.88
61436;BME280;47304;47.456;19.160;2023-08-07T11:21:11;99798.05;;;20.63;47.23
61436;BME280;47304;47.456;19.160;2023-08-07T11:23:39;99796.92;;;21.02;46.09
61436;BME280;47304;47.456;19.160;2023-08-07T11:26:07;99799.20;;;21.06;45.38
61436;BME280;47304;47.456;19.160;2023-08-07T11:28:34;99801.73;;;21.02;45.73
61436;BME280;47304;47.456;19.160;2023-08-07T11:31:01;99803.48;;;20.92;45.85
61436;BME280;47304;47.456;19.160;2023-08-07T11:33:28;99800.78;;;20.75;45.77
61436;BME280;47304;47.456;19.160;2023-08-07T11:35:55;99803.38;;;20.45;46.33
61436;BME280;47304;47.456;19.160;2023-08-07T11:41:00;99810.20;;;20.11;48.09
61436;BME280;47304;47.456;19.160;2023-08-07T11:43:28;99813.27;;;20.06;47.97
61436;BME280;47304;47.456;19.160;2023-08-07T11:45:56;99814.16;;;19.99;48.12
61436;BME280;47304;47.456;19.160;2023-08-07T11:48:25;99815.27;;;19.91;47.87
61436;BME280;47304;47.456;19.160;2023-08-07T11:50:52;99811.77;;;19.70;47.14
61436;BME280;47304;47.456;19.160;2023-08-07T11:53:21;99819.77;;;19.47;47.90
61436;BME280;47304;47.456;19.160;2023-08-07T11:55:52;99819.27;;;19.30;48.55
61436;BME280;47304;47.456;19.160;2023-08-07T11:58:19;99820.52;;;19.23;48.84
61436;BME280;47304;47.456;19.160;2023-08-07T12:00:46;99826.70;;;19.11;49.01
61436;BME280;47304;47.456;19.160;2023-08-07T12:03:27;99821.31;;;19.05;49.57
61436;BME280;47304;47.456;19.160;2023-08-07T12:05:56;99822.33;;;19.02;49.89
61436;BME280;47304;47.456;19.160;2023-08-07T12:08:23;99830.70;;;19.05;50.17
61436;BME280;47304;47.456;19.160;2023-08-07T12:10:53;99833.89;;;19.09;50.09
61436;BME280;47304;47.456;19.160;2023-08-07T12:13:24;99829.50;;;19.04;50.11
61436;BME280;47304;47.456;19.160;2023-08-07T12:15:54;99834.56;;;18.93;50.12
61436;BME280;47304;47.456;19.160;2023-08-07T12:18:22;99836.10;;;18.86;50.60
61436;BME280;47304;47.456;19.160;2023-08-07T12:20:51;99841.42;;;18.82;50.61
61436;BME280;47304;47.456;19.160;2023-08-07T12:23:20;99843.50;;;18.75;50.73
61436;BME280;47304;47.456;19.160;2023-08-07T12:25:47;99845.63;;;18.71;51.56
61436;BME280;47304;47.456;19.160;2023-08-07T12:28:15;99845.49;;;18.70;51.34
61436;BME280;47304;47.456;19.160;2023-08-07T12:30:44;99845.71;;;18.65;50.97
61436;BME280;47304;47.456;19.160;2023-08-07T12:33:11;99846.16;;;18.58;51.14
61436;BME280;47304;47.456;19.160;2023-08-07T12:35:39;99847.79;;;18.58;51.35
61436;BME280;47304;47.456;19.160;2023-08-07T12:38:05;99851.44;;;18.55;51.03
61436;BME280;47304;47.456;19.160;2023-08-07T12:40:32;99851.58;;;18.52;51.27
61436;BME280;47304;47.456;19.160;2023-08-07T12:43:03;99852.29;;;18.47;50.87
61436;BME280;47304;47.456;19.160;2023-08-07T12:45:30;99860.70;;;18.37;50.68
61436;BME280;47304;47.456;19.160;2023-08-07T12:48:00;99858.86;;;18.29;50.92
61436;BME280;47304;47.456;19.160;2023-08-07T12:50:27;99862.16;;;18.31;51.27
61436;BME280;47304;47.456;19.160;2023-08-07T12:52:54;99861.52;;;18.33;51.09
61436;BME280;47304;47.456;19.160;2023-08-07T12:55:21;99852.95;;;18.31;51.14
61436;BME280;47304;47.456;19.160;2023-08-07T12:57:47;99858.38;;;18.29;51.52
61436;BME280;47304;47.456;19.160;2023-08-07T13:00:17;99862.25;;;18.25;51.35
61436;BME280;47304;47.456;19.160;2023-08-07T13:02:48;99858.70;;;18.20;52.10
61436;BME280;47304;47.456;19.160;2023-08-07T13:05:15;99865.96;;;18.20;52.33